sensor_id;sensor_type;location;lat;lon;timestamp;temperature;humidity
81321;DHT22;70785;52.570;5.638;2024-02-26T00:00:42;3.90;77.20
81321;DHT22;70785;52.570;5.638;2024-02-26T00:03:08;3.90;77.20
81321;DHT22;70785;52.570;5.638;2024-02-26T00:05:34;3.90;77.20
81321;DHT22;70785;52.570;5.638;2024-02-26T00:08:00;3.90;77.20
81321;DHT22;70785;52.570;5.638;2024-02-26T00:10:26;3.90;77.20
81321;DHT22;70785;52.570;5.638;2024-02-26T00:12:53;3.90;77.20
81321;DHT22;70785;52.570;5.638;2024-02-26T00:15:19;3.90;77.20
81321;DHT22;70785;52.570;5.638;2024-02-26T00:17:45;3.90;77.20
81321;DHT22;70785;52.570;5.638;2024-02-26T00:20:11;3.80;77.20
81321;DHT22;70785;52.570;5.638;2024-02-26T00:22:37;3.80;77.30
81321;DHT22;70785;52.570;5.638;2024-02-26T00:25:04;3.80;77.30
81321;DHT22;70785;52.570;5.638;2024-02-26T00:27:30;3.80;77.20
81321;DHT22;70785;52.570;5.638;2024-02-26T00:29:56;3.80;77.40
81321;DHT22;70785;52.570;5.638;2024-02-26T00:32:23;3.80;77.50
81321;DHT22;70785;52.570;5.638;2024-02-26T00:34:49;3.70;77.50
81321;DHT22;70785;52.570;5.638;2024-02-26T00:37:16;3.70;77.50
81321;DHT22;70785;52.570;5.638;2024-02-26T00:39:42;3.70;77.50
81321;DHT22;70785;52.570;5.638;2024-02-26T00:42:08;3.70;77.60
81321;DHT22;70785;52.570;5.638;2024-02-26T00:44:34;3.70;77.60
81321;DHT22;70785;52.570;5.638;2024-02-26T00:47:01;3.70;77.60
81321;DHT22;70785;52.570;5.638;2024-02-26T00:49:27;3.80;77.60
81321;DHT22;70785;52.570;5.638;2024-02-26T00:51:53;3.80;77.60
81321;DHT22;70785;52.570;5.638;2024-02-26T00:54:20;3.80;77.60
81321;DHT22;70785;52.570;5.638;2024-02-26T00:56:46;3.90;77.60
81321;DHT22;70785;52.570;5.638;2024-02-26T00:59:12;3.90;77.60
81321;DHT22;70785;52.570;5.638;2024-02-26T01:01:38;3.90;77.50
81321;DHT22;70785;52.570;5.638;2024-02-26T01:04:04;3.90;77.50
81321;DHT22;70785;52.570;5.638;2024-02-26T01:06:30;3.90;77.50
81321;DHT22;70785;52.570;5.638;2024-02-26T01:08:56;3.90;77.50
81321;DHT22;70785;52.570;5.638;2024-02-26T01:11:22;3.90;77.40
81321;DHT22;70785;52.570;5.638;2024-02-26T01:13:49;3.90;77.30
81321;DHT22;70785;52.570;5.638;2024-02-26T01:16:19;3.90;77.30
81321;DHT22;70785;52.570;5.638;2024-02-26T01:18:45;3.90;77.30
81321;DHT22;70785;52.570;5.638;2024-02-26T01:21:11;3.90;77.30
81321;DHT22;70785;52.570;5.638;2024-02-26T01:23:37;3.90;77.20
81321;DHT22;70785;52.570;5.638;2024-02-26T01:26:04;3.90;77.10
81321;DHT22;70785;52.570;5.638;2024-02-26T01:28:30;3.90;77.20
81321;DHT22;70785;52.570;5.638;2024-02-26T01:30:57;3.80;77.20
81321;DHT22;70785;52.570;5.638;2024-02-26T01:33:26;3.70;77.20
81321;DHT22;70785;52.570;5.638;2024-02-26T01:35:52;3.70;77.20
81321;DHT22;70785;52.570;5.638;2024-02-26T01:38:19;3.70;77.30
81321;DHT22;70785;52.570;5.638;2024-02-26T01:40:45;3.60;77.30
81321;DHT22;70785;52.570;5.638;2024-02-26T01:43:11;3.50;77.40
81321;DHT22;70785;52.570;5.638;2024-02-26T01:45:37;3.50;77.40
81321;DHT22;70785;52.570;5.638;2024-02-26T01:48:03;3.50;77.50
81321;DHT22;70785;52.570;5.638;2024-02-26T01:50:30;3.50;77.60
81321;DHT22;70785;52.570;5.638;2024-02-26T01:52:57;3.50;77.60
81321;DHT22;70785;52.570;5.638;2024-02-26T01:55:24;3.50;77.60
81321;DHT22;70785;52.570;5.638;2024-02-26T01:57:51;3.50;77.60
81321;DHT22;70785;52.570;5.638;2024-02-26T02:00:19;3.50;77.60
81321;DHT22;70785;52.570;5.638;2024-02-26T02:02:45;3.50;77.60
81321;DHT22;70785;52.570;5.638;2024-02-26T02:05:17;3.50;77.60
81321;DHT22;70785;52.570;5.638;2024-02-26T02:07:44;3.40;77.60
81321;DHT22;70785;52.570;5.638;2024-02-26T02:10:10;3.30;77.70
81321;DHT22;70785;52.570;5.638;2024-02-26T02:12:37;3.30;77.70
81321;DHT22;70785;52.570;5.638;2024-02-26T02:15:06;3.30;77.80
81321;DHT22;70785;52.570;5.638;2024-02-26T02:17:32;3.30;77.80
81321;DHT22;70785;52.570;5.638;2024-02-26T02:19:58;3.30;77.80
81321;DHT22;70785;52.570;5.638;2024-02-26T02:22:24;3.30;77.80
81321;DHT22;70785;52.570;5.638;2024-02-26T02:24:52;3.20;77.80
81321;DHT22;70785;52.570;5.638;2024-02-26T02:27:19;3.20;77.80
81321;DHT22;70785;52.570;5.638;2024-02-26T02:29:46;3.20;77.80
81321;DHT22;70785;52.570;5.638;2024-02-26T02:32:13;3.30;77.90
81321;DHT22;70785;52.570;5.638;2024-02-26T02:34:40;3.30;77.90
81321;DHT22;70785;52.570;5.638;2024-02-26T02:37:07;3.30;77.90
81321;DHT22;70785;52.570;5.638;2024-02-26T02:39:33;3.30;78.00
81321;DHT22;70785;52.570;5.638;2024-02-26T02:41:59;3.30;77.90
81321;DHT22;70785;52.570;5.638;2024-02-26T02:44:25;3.30;77.90
81321;DHT22;70785;52.570;5.638;2024-02-26T02:46:51;3.30;77.90
81321;DHT22;70785;52.570;5.638;2024-02-26T02:49:19;3.30;77.90
81321;DHT22;70785;52.570;5.638;2024-02-26T02:51:45;3.30;78.00
81321;DHT22;70785;52.570;5.638;2024-02-26T02:54:11;3.30;77.90
81321;DHT22;70785;52.570;5.638;2024-02-26T02:56:37;3.30;77.90
81321;DHT22;70785;52.570;5.638;2024-02-26T02:59:03;3.30;78.00
81321;DHT22;70785;52.570;5.638;2024-02-26T03:01:29;3.30;78.00
81321;DHT22;70785;52.570;5.638;2024-02-26T03:03:55;3.30;78.00
81321;DHT22;70785;52.570;5.638;2024-02-26T03:06:22;3.30;78.10
81321;DHT22;70785;52.570;5.638;2024-02-26T03:08:48;3.30;78.10
81321;DHT22;70785;52.570;5.638;2024-02-26T03:11:15;3.50;78.10
81321;DHT22;70785;52.570;5.638;2024-02-26T03:13:42;3.40;78.10
81321;DHT22;70785;52.570;5.638;2024-02-26T03:16:08;3.40;78.10
81321;DHT22;70785;52.570;5.638;2024-02-26T03:18:34;3.40;78.10
81321;DHT22;70785;52.570;5.638;2024-02-26T03:21:00;3.50;78.10
81321;DHT22;70785;52.570;5.638;2024-02-26T03:23:26;3.40;78.20
81321;DHT22;70785;52.570;5.638;2024-02-26T03:25:54;3.40;78.20
81321;DHT22;70785;52.570;5.638;2024-02-26T03:28:21;3.50;78.20
81321;DHT22;70785;52.570;5.638;2024-02-26T03:30:47;3.50;78.10
81321;DHT22;70785;52.570;5.638;2024-02-26T03:33:14;3.50;78.10
81321;DHT22;70785;52.570;5.638;2024-02-26T03:35:40;3.50;78.20
81321;DHT22;70785;52.570;5.638;2024-02-26T03:38:06;3.40;78.20
81321;DHT22;70785;52.570;5.638;2024-02-26T03:40:32;3.50;78.30
81321;DHT22;70785;52.570;5.638;2024-02-26T03:42:58;3.50;78.30
81321;DHT22;70785;52.570;5.638;2024-02-26T03:45:24;3.50;78.30
81321;DHT22;70785;52.570;5.638;2024-02-26T03:47:51;3.50;78.30
81321;DHT22;70785;52.570;5.638;2024-02-26T03:50:18;3.50;78.30
81321;DHT22;70785;52.570;5.638;2024-02-26T03:52:44;3.50;78.30
81321;DHT22;70785;52.570;5.638;2024-02-26T03:55:10;3.50;78.40
81321;DHT22;70785;52.570;5.638;2024-02-26T03:57:36;3.50;78.30
81321;DHT22;70785;52.570;5.638;2024-02-26T04:00:03;3.50;78.40
81321;DHT22;70785;52.570;5.638;2024-02-26T04:02:36;3.50;78.40
81321;DHT22;70785;52.570;5.638;2024-02-26T04:05:03;3.50;78.50
81321;DHT22;70785;52.570;5.638;2024-02-26T04:07:29;3.50;78.50
81321;DHT22;70785;52.570;5.638;2024-02-26T04:09:55;3.60;78.40
81321;DHT22;70785;52.570;5.638;2024-02-26T04:12:21;3.60;78.50
81321;DHT22;70785;52.570;5.638;2024-02-26T04:14:47;3.60;78.50
81321;DHT22;70785;52.570;5.638;2024-02-26T04:17:14;3.60;78.50
81321;DHT22;70785;52.570;5.638;2024-02-26T04:19:40;3.60;78.50
81321;DHT22;70785;52.570;5.638;2024-02-26T04:22:06;3.60;78.50
81321;DHT22;70785;52.570;5.638;2024-02-26T04:24:32;3.70;78.50
81321;DHT22;70785;52.570;5.638;2024-02-26T04:26:58;3.70;78.40
81321;DHT22;70785;52.570;5.638;2024-02-26T04:29:24;3.70;78.40
81321;DHT22;70785;52.570;5.638;2024-02-26T04:31:50;3.70;78.50
81321;DHT22;70785;52.570;5.638;2024-02-26T04:34:16;3.70;78.60
81321;DHT22;70785;52.570;5.638;2024-02-26T04:36:42;3.70;78.60
81321;DHT22;70785;52.570;5.638;2024-02-26T04:39:09;3.70;78.50
81321;DHT22;70785;52.570;5.638;2024-02-26T04:41:36;3.70;78.50
81321;DHT22;70785;52.570;5.638;2024-02-26T04:44:02;3.60;78.60
81321;DHT22;70785;52.570;5.638;2024-02-26T04:46:28;3.70;78.60
81321;DHT22;70785;52.570;5.638;2024-02-26T04:48:54;3.60;78.60
81321;DHT22;70785;52.570;5.638;2024-02-26T04:51:20;3.60;78.60
81321;DHT22;70785;52.570;5.638;2024-02-26T04:53:46;3.60;78.60
81321;DHT22;70785;52.570;5.638;2024-02-26T04:56:13;3.60;78.60
81321;DHT22;70785;52.570;5.638;2024-02-26T04:58:39;3.70;78.60
81321;DHT22;70785;52.570;5.638;2024-02-26T05:01:05;3.70;78.50
81321;DHT22;70785;52.570;5.638;2024-02-26T05:03:31;3.70;78.50
81321;DHT22;70785;52.570;5.638;2024-02-26T05:05:58;3.70;78.60
81321;DHT22;70785;52.570;5.638;2024-02-26T05:08:24;3.70;78.60
81321;DHT22;70785;52.570;5.638;2024-02-26T05:10:50;3.70;78.50
81321;DHT22;70785;52.570;5.638;2024-02-26T05:13:16;3.70;78.40
81321;DHT22;70785;52.570;5.638;2024-02-26T05:15:44;3.70;78.50
81321;DHT22;70785;52.570;5.638;2024-02-26T05:18:12;3.70;78.40
81321;DHT22;70785;52.570;5.638;2024-02-26T05:20:38;3.60;78.50
81321;DHT22;70785;52.570;5.638;2024-02-26T05:23:05;3.70;78.50
81321;DHT22;70785;52.570;5.638;2024-02-26T05:25:32;3.70;78.50
81321;DHT22;70785;52.570;5.638;2024-02-26T05:28:01;3.60;78.50
81321;DHT22;70785;52.570;5.638;2024-02-26T05:30:27;3.60;78.60
81321;DHT22;70785;52.570;5.638;2024-02-26T05:32:54;3.60;78.60
81321;DHT22;70785;52.570;5.638;2024-02-26T05:35:20;3.60;78.60
81321;DHT22;70785;52.570;5.638;2024-02-26T05:37:46;3.60;78.60
81321;DHT22;70785;52.570;5.638;2024-02-26T05:40:12;3.70;78.70
81321;DHT22;70785;52.570;5.638;2024-02-26T05:42:38;3.70;78.60
81321;DHT22;70785;52.570;5.638;2024-02-26T05:45:06;3.70;78.50
81321;DHT22;70785;52.570;5.638;2024-02-26T05:47:33;3.80;78.40
81321;DHT22;70785;52.570;5.638;2024-02-26T05:49:59;3.70;78.40
81321;DHT22;70785;52.570;5.638;2024-02-26T05:52:27;3.70;78.40
81321;DHT22;70785;52.570;5.638;2024-02-26T05:54:54;3.70;78.30
81321;DHT22;70785;52.570;5.638;2024-02-26T05:57:20;3.70;78.30
81321;DHT22;70785;52.570;5.638;2024-02-26T05:59:46;3.70;78.40
81321;DHT22;70785;52.570;5.638;2024-02-26T06:02:12;3.60;78.30
81321;DHT22;70785;52.570;5.638;2024-02-26T06:04:38;3.60;78.30
81321;DHT22;70785;52.570;5.638;2024-02-26T06:07:04;3.60;78.30
81321;DHT22;70785;52.570;5.638;2024-02-26T06:09:31;3.60;78.30
81321;DHT22;70785;52.570;5.638;2024-02-26T06:11:57;3.60;78.30
81321;DHT22;70785;52.570;5.638;2024-02-26T06:14:23;3.60;78.20
81321;DHT22;70785;52.570;5.638;2024-02-26T06:16:49;3.50;78.20
81321;DHT22;70785;52.570;5.638;2024-02-26T06:19:15;3.50;78.20
81321;DHT22;70785;52.570;5.638;2024-02-26T06:21:41;3.50;78.10
81321;DHT22;70785;52.570;5.638;2024-02-26T06:24:07;3.50;78.10
81321;DHT22;70785;52.570;5.638;2024-02-26T06:26:33;3.50;78.10
81321;DHT22;70785;52.570;5.638;2024-02-26T06:28:59;3.50;78.20
81321;DHT22;70785;52.570;5.638;2024-02-26T06:31:26;3.50;78.20
81321;DHT22;70785;52.570;5.638;2024-02-26T06:33:53;3.50;78.10
81321;DHT22;70785;52.570;5.638;2024-02-26T06:36:20;3.50;78.10
81321;DHT22;70785;52.570;5.638;2024-02-26T06:38:46;3.50;78.10
81321;DHT22;70785;52.570;5.638;2024-02-26T06:41:12;3.50;78.10
81321;DHT22;70785;52.570;5.638;2024-02-26T06:43:38;3.50;78.10
81321;DHT22;70785;52.570;5.638;2024-02-26T06:46:06;3.50;78.10
81321;DHT22;70785;52.570;5.638;2024-02-26T06:48:32;3.50;78.10
81321;DHT22;70785;52.570;5.638;2024-02-26T06:50:58;3.50;78.00
81321;DHT22;70785;52.570;5.638;2024-02-26T06:53:24;3.50;78.00
81321;DHT22;70785;52.570;5.638;2024-02-26T06:55:51;3.50;78.00
81321;DHT22;70785;52.570;5.638;2024-02-26T06:58:17;3.50;77.90
81321;DHT22;70785;52.570;5.638;2024-02-26T07:00:43;3.50;77.80
81321;DHT22;70785;52.570;5.638;2024-02-26T07:03:10;3.50;77.50
81321;DHT22;70785;52.570;5.638;2024-02-26T07:05:36;3.50;77.50
81321;DHT22;70785;52.570;5.638;2024-02-26T07:08:02;3.50;77.40
81321;DHT22;70785;52.570;5.638;2024-02-26T07:10:28;3.50;77.40
81321;DHT22;70785;52.570;5.638;2024-02-26T07:12:54;3.50;77.30
81321;DHT22;70785;52.570;5.638;2024-02-26T07:15:20;3.50;77.40
81321;DHT22;70785;52.570;5.638;2024-02-26T07:17:47;3.50;77.30
81321;DHT22;70785;52.570;5.638;2024-02-26T07:20:14;3.50;77.30
81321;DHT22;70785;52.570;5.638;2024-02-26T07:22:41;3.50;77.30
81321;DHT22;70785;52.570;5.638;2024-02-26T07:25:08;3.50;77.20
81321;DHT22;70785;52.570;5.638;2024-02-26T07:27:37;3.50;77.00
81321;DHT22;70785;52.570;5.638;2024-02-26T07:30:04;3.50;76.90
81321;DHT22;70785;52.570;5.638;2024-02-26T07:32:30;3.60;76.90
81321;DHT22;70785;52.570;5.638;2024-02-26T07:34:57;3.60;76.80
81321;DHT22;70785;52.570;5.638;2024-02-26T07:37:23;3.60;76.80
81321;DHT22;70785;52.570;5.638;2024-02-26T07:39:49;3.60;76.80
81321;DHT22;70785;52.570;5.638;2024-02-26T07:42:15;3.60;76.70
81321;DHT22;70785;52.570;5.638;2024-02-26T07:44:41;3.70;76.50
81321;DHT22;70785;52.570;5.638;2024-02-26T07:47:09;3.70;76.40
81321;DHT22;70785;52.570;5.638;2024-02-26T07:49:35;3.70;76.40
81321;DHT22;70785;52.570;5.638;2024-02-26T07:52:01;3.70;76.30
81321;DHT22;70785;52.570;5.638;2024-02-26T07:54:28;3.70;76.30
81321;DHT22;70785;52.570;5.638;2024-02-26T07:56:54;3.80;76.40
81321;DHT22;70785;52.570;5.638;2024-02-26T07:59:20;3.90;76.30
81321;DHT22;70785;52.570;5.638;2024-02-26T08:01:52;3.90;76.20
81321;DHT22;70785;52.570;5.638;2024-02-26T08:04:19;3.90;76.20
81321;DHT22;70785;52.570;5.638;2024-02-26T08:06:45;3.90;76.10
81321;DHT22;70785;52.570;5.638;2024-02-26T08:09:11;3.90;75.90
81321;DHT22;70785;52.570;5.638;2024-02-26T08:11:38;3.90;75.70
81321;DHT22;70785;52.570;5.638;2024-02-26T08:14:05;4.00;75.70
81321;DHT22;70785;52.570;5.638;2024-02-26T08:16:31;4.00;75.50
81321;DHT22;70785;52.570;5.638;2024-02-26T08:18:57;4.00;75.30
81321;DHT22;70785;52.570;5.638;2024-02-26T08:21:23;4.00;75.10
81321;DHT22;70785;52.570;5.638;2024-02-26T08:23:49;4.00;75.10
81321;DHT22;70785;52.570;5.638;2024-02-26T08:26:16;4.10;75.10
81321;DHT22;70785;52.570;5.638;2024-02-26T08:28:42;4.10;75.00
81321;DHT22;70785;52.570;5.638;2024-02-26T08:31:08;4.10;75.00
81321;DHT22;70785;52.570;5.638;2024-02-26T08:33:34;4.10;75.00
81321;DHT22;70785;52.570;5.638;2024-02-26T08:36:05;4.10;75.00
81321;DHT22;70785;52.570;5.638;2024-02-26T08:38:31;4.10;74.90
81321;DHT22;70785;52.570;5.638;2024-02-26T08:40:57;4.20;74.90
81321;DHT22;70785;52.570;5.638;2024-02-26T08:43:23;4.20;75.00
81321;DHT22;70785;52.570;5.638;2024-02-26T08:45:49;4.20;75.00
81321;DHT22;70785;52.570;5.638;2024-02-26T08:48:16;4.20;74.70
81321;DHT22;70785;52.570;5.638;2024-02-26T08:50:42;4.30;74.70
81321;DHT22;70785;52.570;5.638;2024-02-26T08:53:08;4.30;74.70
81321;DHT22;70785;52.570;5.638;2024-02-26T08:55:34;4.40;74.80
81321;DHT22;70785;52.570;5.638;2024-02-26T08:58:00;4.30;74.70
81321;DHT22;70785;52.570;5.638;2024-02-26T09:00:26;4.40;74.80
81321;DHT22;70785;52.570;5.638;2024-02-26T09:02:52;4.40;74.80
81321;DHT22;70785;52.570;5.638;2024-02-26T09:05:18;4.40;74.60
81321;DHT22;70785;52.570;5.638;2024-02-26T09:07:45;4.50;74.70
81321;DHT22;70785;52.570;5.638;2024-02-26T09:10:12;4.50;74.60
81321;DHT22;70785;52.570;5.638;2024-02-26T09:12:38;4.50;74.60
81321;DHT22;70785;52.570;5.638;2024-02-26T09:15:06;4.50;74.60
81321;DHT22;70785;52.570;5.638;2024-02-26T09:17:33;4.50;74.50
81321;DHT22;70785;52.570;5.638;2024-02-26T09:19:59;4.60;74.40
81321;DHT22;70785;52.570;5.638;2024-02-26T09:22:25;4.60;74.20
81321;DHT22;70785;52.570;5.638;2024-02-26T09:24:51;4.60;74.20
81321;DHT22;70785;52.570;5.638;2024-02-26T09:27:19;4.60;74.10
81321;DHT22;70785;52.570;5.638;2024-02-26T09:29:45;4.50;74.10
81321;DHT22;70785;52.570;5.638;2024-02-26T09:32:12;4.60;74.10
81321;DHT22;70785;52.570;5.638;2024-02-26T09:34:40;4.60;73.80
81321;DHT22;70785;52.570;5.638;2024-02-26T09:37:06;4.50;74.00
81321;DHT22;70785;52.570;5.638;2024-02-26T09:39:32;4.50;74.10
81321;DHT22;70785;52.570;5.638;2024-02-26T09:42:04;4.60;74.00
81321;DHT22;70785;52.570;5.638;2024-02-26T09:44:31;4.60;73.90
81321;DHT22;70785;52.570;5.638;2024-02-26T09:47:01;4.60;74.00
81321;DHT22;70785;52.570;5.638;2024-02-26T09:49:27;4.70;74.00
81321;DHT22;70785;52.570;5.638;2024-02-26T09:51:54;4.70;74.00
81321;DHT22;70785;52.570;5.638;2024-02-26T09:54:22;4.70;73.90
81321;DHT22;70785;52.570;5.638;2024-02-26T09:56:53;4.80;73.80
81321;DHT22;70785;52.570;5.638;2024-02-26T09:59:23;4.90;73.80
81321;DHT22;70785;52.570;5.638;2024-02-26T10:01:50;4.90;73.80
81321;DHT22;70785;52.570;5.638;2024-02-26T10:04:16;5.00;73.60
81321;DHT22;70785;52.570;5.638;2024-02-26T10:06:43;5.00;73.30
81321;DHT22;70785;52.570;5.638;2024-02-26T10:09:10;5.00;73.30
81321;DHT22;70785;52.570;5.638;2024-02-26T10:11:38;4.90;73.30
81321;DHT22;70785;52.570;5.638;2024-02-26T10:14:04;5.00;73.40
81321;DHT22;70785;52.570;5.638;2024-02-26T10:16:30;5.00;73.30
81321;DHT22;70785;52.570;5.638;2024-02-26T10:18:56;5.00;73.30
81321;DHT22;70785;52.570;5.638;2024-02-26T10:21:23;5.10;73.10
81321;DHT22;70785;52.570;5.638;2024-02-26T10:23:49;5.10;73.00
81321;DHT22;70785;52.570;5.638;2024-02-26T10:26:19;5.10;72.90
81321;DHT22;70785;52.570;5.638;2024-02-26T10:28:46;5.20;72.90
81321;DHT22;70785;52.570;5.638;2024-02-26T10:31:14;5.20;72.60
81321;DHT22;70785;52.570;5.638;2024-02-26T10:33:41;5.20;72.60
81321;DHT22;70785;52.570;5.638;2024-02-26T10:36:08;5.30;72.50
81321;DHT22;70785;52.570;5.638;2024-02-26T10:38:36;5.30;72.50
81321;DHT22;70785;52.570;5.638;2024-02-26T10:41:06;5.30;72.30
81321;DHT22;70785;52.570;5.638;2024-02-26T10:43:32;5.30;72.20
81321;DHT22;70785;52.570;5.638;2024-02-26T10:45:58;5.30;72.20
81321;DHT22;70785;52.570;5.638;2024-02-26T10:48:25;5.30;71.90
81321;DHT22;70785;52.570;5.638;2024-02-26T10:50:51;5.30;71.80
81321;DHT22;70785;52.570;5.638;2024-02-26T10:53:22;5.30;72.00
81321;DHT22;70785;52.570;5.638;2024-02-26T10:56:03;5.30;72.00
81321;DHT22;70785;52.570;5.638;2024-02-26T10:58:31;5.40;72.00
81321;DHT22;70785;52.570;5.638;2024-02-26T11:00:57;5.50;71.90
81321;DHT22;70785;52.570;5.638;2024-02-26T11:03:25;5.50;71.80
81321;DHT22;70785;52.570;5.638;2024-02-26T11:05:51;5.50;71.60
81321;DHT22;70785;52.570;5.638;2024-02-26T11:08:19;5.50;71.40
81321;DHT22;70785;52.570;5.638;2024-02-26T11:10:48;5.50;71.10
81321;DHT22;70785;52.570;5.638;2024-02-26T11:13:18;5.50;71.10
81321;DHT22;70785;52.570;5.638;2024-02-26T11:15:48;5.50;71.30
81321;DHT22;70785;52.570;5.638;2024-02-26T11:18:16;5.60;71.40
81321;DHT22;70785;52.570;5.638;2024-02-26T11:20:43;5.60;70.60
81321;DHT22;70785;52.570;5.638;2024-02-26T11:23:10;5.60;70.90
81321;DHT22;70785;52.570;5.638;2024-02-26T11:25:36;5.60;70.90
81321;DHT22;70785;52.570;5.638;2024-02-26T11:28:12;5.60;70.90
81321;DHT22;70785;52.570;5.638;2024-02-26T11:30:43;5.60;70.90
81321;DHT22;70785;52.570;5.638;2024-02-26T11:33:10;5.60;70.70
81321;DHT22;70785;52.570;5.638;2024-02-26T11:35:38;5.70;70.70
81321;DHT22;70785;52.570;5.638;2024-02-26T11:38:05;5.70;70.60
81321;DHT22;70785;52.570;5.638;2024-02-26T11:40:37;5.80;70.40
81321;DHT22;70785;52.570;5.638;2024-02-26T11:43:05;5.80;70.20
81321;DHT22;70785;52.570;5.638;2024-02-26T11:48:13;5.80;70.10
81321;DHT22;70785;52.570;5.638;2024-02-26T11:50:40;5.90;70.20
81321;DHT22;70785;52.570;5.638;2024-02-26T11:53:28;6.00;70.40
81321;DHT22;70785;52.570;5.638;2024-02-26T11:58:56;6.10;69.50
81321;DHT22;70785;52.570;5.638;2024-02-26T12:01:43;6.20;69.70
81321;DHT22;70785;52.570;5.638;2024-02-26T12:04:17;6.30;69.70
81321;DHT22;70785;52.570;5.638;2024-02-26T12:07:01;6.40;69.60
81321;DHT22;70785;52.570;5.638;2024-02-26T12:09:41;6.40;69.20
81321;DHT22;70785;52.570;5.638;2024-02-26T12:12:09;6.40;69.30
81321;DHT22;70785;52.570;5.638;2024-02-26T12:14:40;6.50;68.90
81321;DHT22;70785;52.570;5.638;2024-02-26T12:17:24;6.40;68.30
81321;DHT22;70785;52.570;5.638;2024-02-26T12:19:50;6.40;68.70
81321;DHT22;70785;52.570;5.638;2024-02-26T12:22:19;6.40;68.80
81321;DHT22;70785;52.570;5.638;2024-02-26T12:24:45;6.40;68.60
81321;DHT22;70785;52.570;5.638;2024-02-26T12:27:12;6.40;68.90
81321;DHT22;70785;52.570;5.638;2024-02-26T12:29:39;6.40;69.00
81321;DHT22;70785;52.570;5.638;2024-02-26T12:32:05;6.50;69.00
81321;DHT22;70785;52.570;5.638;2024-02-26T12:34:32;6.50;68.80
81321;DHT22;70785;52.570;5.638;2024-02-26T12:36:58;6.50;68.80
81321;DHT22;70785;52.570;5.638;2024-02-26T12:39:24;6.50;68.90
81321;DHT22;70785;52.570;5.638;2024-02-26T12:41:50;6.50;69.00
81321;DHT22;70785;52.570;5.638;2024-02-26T12:44:18;6.60;69.10
81321;DHT22;70785;52.570;5.638;2024-02-26T12:46:44;6.60;68.90
81321;DHT22;70785;52.570;5.638;2024-02-26T12:49:16;6.60;68.80
81321;DHT22;70785;52.570;5.638;2024-02-26T12:51:44;6.60;68.90
81321;DHT22;70785;52.570;5.638;2024-02-26T12:54:12;6.70;68.60
81321;DHT22;70785;52.570;5.638;2024-02-26T12:56:39;6.70;68.60
81321;DHT22;70785;52.570;5.638;2024-02-26T12:59:05;6.60;68.20
81321;DHT22;70785;52.570;5.638;2024-02-26T13:01:31;6.60;68.20
81321;DHT22;70785;52.570;5.638;2024-02-26T13:03:58;6.60;68.40
81321;DHT22;70785;52.570;5.638;2024-02-26T13:06:26;6.50;68.30
81321;DHT22;70785;52.570;5.638;2024-02-26T13:08:56;6.50;68.20
81321;DHT22;70785;52.570;5.638;2024-02-26T13:11:24;6.40;68.20
81321;DHT22;70785;52.570;5.638;2024-02-26T13:13:50;6.50;68.30
81321;DHT22;70785;52.570;5.638;2024-02-26T13:16:17;6.40;68.00
81321;DHT22;70785;52.570;5.638;2024-02-26T13:18:43;6.40;68.30
81321;DHT22;70785;52.570;5.638;2024-02-26T13:21:12;6.40;68.40
81321;DHT22;70785;52.570;5.638;2024-02-26T13:23:42;6.40;68.20
81321;DHT22;70785;52.570;5.638;2024-02-26T13:26:11;6.30;68.30
81321;DHT22;70785;52.570;5.638;2024-02-26T13:28:38;6.30;68.60
81321;DHT22;70785;52.570;5.638;2024-02-26T13:31:05;6.30;68.60
81321;DHT22;70785;52.570;5.638;2024-02-26T13:33:34;6.30;68.60
81321;DHT22;70785;52.570;5.638;2024-02-26T13:36:00;6.20;68.60
81321;DHT22;70785;52.570;5.638;2024-02-26T13:38:27;6.20;68.70
81321;DHT22;70785;52.570;5.638;2024-02-26T13:40:54;6.30;68.80
81321;DHT22;70785;52.570;5.638;2024-02-26T13:43:21;6.20;68.90
81321;DHT22;70785;52.570;5.638;2024-02-26T13:45:47;6.20;68.90
81321;DHT22;70785;52.570;5.638;2024-02-26T13:48:14;6.20;68.90
81321;DHT22;70785;52.570;5.638;2024-02-26T13:50:41;6.20;69.00
81321;DHT22;70785;52.570;5.638;2024-02-26T13:53:09;6.20;69.10
81321;DHT22;70785;52.570;5.638;2024-02-26T13:55:35;6.20;69.10
81321;DHT22;70785;52.570;5.638;2024-02-26T13:58:02;6.20;69.00
81321;DHT22;70785;52.570;5.638;2024-02-26T14:00:29;6.10;69.10
81321;DHT22;70785;52.570;5.638;2024-02-26T14:02:58;6.10;69.00
81321;DHT22;70785;52.570;5.638;2024-02-26T14:05:24;6.00;69.10
81321;DHT22;70785;52.570;5.638;2024-02-26T14:07:50;6.00;69.40
81321;DHT22;70785;52.570;5.638;2024-02-26T14:10:16;6.00;69.50
81321;DHT22;70785;52.570;5.638;2024-02-26T14:12:42;6.00;69.30
81321;DHT22;70785;52.570;5.638;2024-02-26T14:15:10;6.00;69.60
81321;DHT22;70785;52.570;5.638;2024-02-26T14:17:36;6.00;69.70
81321;DHT22;70785;52.570;5.638;2024-02-26T14:20:03;5.90;69.50
81321;DHT22;70785;52.570;5.638;2024-02-26T14:22:29;5.90;69.70
81321;DHT22;70785;52.570;5.638;2024-02-26T14:24:58;5.90;69.80
81321;DHT22;70785;52.570;5.638;2024-02-26T14:27:26;5.90;69.90
81321;DHT22;70785;52.570;5.638;2024-02-26T14:29:52;5.90;70.00
81321;DHT22;70785;52.570;5.638;2024-02-26T14:32:20;5.90;70.00
81321;DHT22;70785;52.570;5.638;2024-02-26T14:34:47;5.90;70.00
81321;DHT22;70785;52.570;5.638;2024-02-26T14:37:13;5.90;70.20
81321;DHT22;70785;52.570;5.638;2024-02-26T14:39:39;5.80;70.20
81321;DHT22;70785;52.570;5.638;2024-02-26T14:42:05;5.80;70.20
81321;DHT22;70785;52.570;5.638;2024-02-26T14:44:31;5.80;70.40
81321;DHT22;70785;52.570;5.638;2024-02-26T14:46:58;5.80;70.40
81321;DHT22;70785;52.570;5.638;2024-02-26T14:49:24;5.70;70.10
81321;DHT22;70785;52.570;5.638;2024-02-26T14:51:50;5.60;69.90
81321;DHT22;70785;52.570;5.638;2024-02-26T14:54:16;5.60;70.00
81321;DHT22;70785;52.570;5.638;2024-02-26T14:56:42;5.60;70.30
81321;DHT22;70785;52.570;5.638;2024-02-26T14:59:09;5.60;70.40
81321;DHT22;70785;52.570;5.638;2024-02-26T15:01:35;5.60;70.50
81321;DHT22;70785;52.570;5.638;2024-02-26T15:04:01;5.50;70.70
81321;DHT22;70785;52.570;5.638;2024-02-26T15:06:27;5.50;70.80
81321;DHT22;70785;52.570;5.638;2024-02-26T15:08:53;5.50;70.70
81321;DHT22;70785;52.570;5.638;2024-02-26T15:11:19;5.50;70.80
81321;DHT22;70785;52.570;5.638;2024-02-26T15:13:45;5.50;70.70
81321;DHT22;70785;52.570;5.638;2024-02-26T15:16:17;5.50;70.70
81321;DHT22;70785;52.570;5.638;2024-02-26T15:18:45;5.40;70.70
81321;DHT22;70785;52.570;5.638;2024-02-26T15:21:11;5.30;70.70
81321;DHT22;70785;52.570;5.638;2024-02-26T15:23:39;5.30;70.70
81321;DHT22;70785;52.570;5.638;2024-02-26T15:26:05;5.30;70.90
81321;DHT22;70785;52.570;5.638;2024-02-26T15:28:31;5.30;71.10
81321;DHT22;70785;52.570;5.638;2024-02-26T15:30:57;5.30;71.10
81321;DHT22;70785;52.570;5.638;2024-02-26T15:33:24;5.30;71.20
81321;DHT22;70785;52.570;5.638;2024-02-26T15:35:50;5.30;71.30
81321;DHT22;70785;52.570;5.638;2024-02-26T15:38:17;5.30;71.30
81321;DHT22;70785;52.570;5.638;2024-02-26T15:40:43;5.30;71.40
81321;DHT22;70785;52.570;5.638;2024-02-26T15:43:10;5.30;71.30
81321;DHT22;70785;52.570;5.638;2024-02-26T15:45:36;5.30;71.40
81321;DHT22;70785;52.570;5.638;2024-02-26T15:48:02;5.20;71.50